Time;durP1;ratioP1;P1;durP2;ratioP2;P2;SDS_P1;SDS_P2;PMS_P1;PMS_P2;Temp;Humidity;BMP_temperature;BMP_pressure;BME280_temperature;BME280_humidity;BME280_pressure;Samples;Min_cycle;Max_cycle;Signal;HPM_P1;HPM_P2
2022/02/14 00:00:58;;;;;;;24.83;4.70;;;;;;;;;;5073768;28;20186;-74
2022/02/14 00:03:24;;;;;;;6.65;2.67;;;;;;;;;;5080657;28;20220;-74
2022/02/14 00:05:50;;;;;;;19.42;4.20;;;;;;;;;;5077711;28;20218;-74
2022/02/14 00:08:16;;;;;;;33.22;5.60;;;;;;;;;;5079865;28;20280;-74
2022/02/14 00:10:42;;;;;;;15.33;2.70;;;;;;;;;;5077877;28;20589;-74
2022/02/14 00:13:08;;;;;;;17.75;3.70;;;;;;;;;;5075415;28;20774;-74
2022/02/14 00:15:35;;;;;;;20.33;4.82;;;;;;;;;;5087080;28;20181;-73
2022/02/14 00:18:01;;;;;;;4.53;2.05;;;;;;;;;;5073728;28;20265;-72
2022/02/14 00:20:29;;;;;;;10.60;3.25;;;;;;;;;;5073431;28;20175;-72
2022/02/14 00:22:55;;;;;;;9.52;2.60;;;;;;;;;;5077613;28;20199;-72
2022/02/14 00:25:23;;;;;;;12.32;3.40;;;;;;;;;;5076113;28;20680;-71
2022/02/14 00:27:49;;;;;;;7.85;3.45;;;;;;;;;;5076279;28;20182;-72
2022/02/14 00:30:15;;;;;;;14.45;4.38;;;;;;;;;;5079915;28;20629;-72
2022/02/14 00:32:41;;;;;;;6.13;2.33;;;;;;;;;;5082636;28;20182;-74
2022/02/14 00:35:10;;;;;;;13.98;3.85;;;;;;;;;;5084162;28;20251;-74
2022/02/14 00:37:37;;;;;;;4.20;2.25;;;;;;;;;;5082842;28;20171;-74
2022/02/14 00:40:04;;;;;;;14.43;3.50;;;;;;;;;;5086338;28;20274;-74
2022/02/14 00:42:30;;;;;;;8.13;3.13;;;;;;;;;;5085259;28;20216;-74
2022/02/14 00:44:56;;;;;;;12.73;4.30;;;;;;;;;;5084552;28;20206;-74
2022/02/14 00:47:22;;;;;;;9.27;3.55;;;;;;;;;;5073492;28;20250;-74
2022/02/14 00:49:48;;;;;;;6.05;2.90;;;;;;;;;;5077214;28;20174;-74
2022/02/14 00:52:14;;;;;;;7.82;3.00;;;;;;;;;;5080779;28;20198;-74
2022/02/14 00:54:42;;;;;;;21.57;3.73;;;;;;;;;;5076776;28;20650;-74
2022/02/14 00:57:08;;;;;;;7.30;3.07;;;;;;;;;;5093386;28;20408;-74
2022/02/14 00:59:34;;;;;;;11.73;3.30;;;;;;;;;;5083292;28;20465;-74
2022/02/14 01:02:01;;;;;;;5.97;2.70;;;;;;;;;;5080944;28;20517;-72
2022/02/14 01:04:27;;;;;;;18.07;4.00;;;;;;;;;;5085649;28;20691;-72
2022/02/14 01:06:53;;;;;;;10.27;3.60;;;;;;;;;;5082250;28;20454;-71
2022/02/14 01:09:19;;;;;;;4.80;2.33;;;;;;;;;;5083025;28;20408;-72
2022/02/14 01:11:45;;;;;;;28.85;5.57;;;;;;;;;;5085760;28;20425;-72
2022/02/14 01:14:11;;;;;;;14.43;3.60;;;;;;;;;;5078145;28;20656;-72
2022/02/14 01:16:37;;;;;;;8.77;2.92;;;;;;;;;;5080580;28;20179;-74
2022/02/14 01:19:04;;;;;;;13.63;3.40;;;;;;;;;;5088259;28;20175;-74
2022/02/14 01:21:30;;;;;;;15.15;3.72;;;;;;;;;;5077604;28;20205;-74
2022/02/14 01:23:59;;;;;;;5.25;2.17;;;;;;;;;;5080904;28;20183;-74
2022/02/14 01:26:25;;;;;;;17.57;3.87;;;;;;;;;;5079022;28;20217;-74
2022/02/14 01:28:53;;;;;;;5.50;2.30;;;;;;;;;;5086196;28;20912;-74
2022/02/14 01:31:19;;;;;;;23.30;5.47;;;;;;;;;;5087620;28;20403;-73
2022/02/14 01:33:45;;;;;;;21.25;3.67;;;;;;;;;;5080850;28;20421;-74
2022/02/14 01:36:11;;;;;;;6.67;2.30;;;;;;;;;;5076143;28;20530;-74
2022/02/14 01:38:41;;;;;;;8.60;2.83;;;;;;;;;;5076284;28;20943;-74
2022/02/14 01:41:07;;;;;;;6.55;2.35;;;;;;;;;;5083649;28;20638;-74
2022/02/14 01:43:33;;;;;;;6.82;2.80;;;;;;;;;;5077607;28;20515;-74
2022/02/14 01:45:59;;;;;;;4.25;1.80;;;;;;;;;;5076519;28;20238;-74
2022/02/14 01:48:25;;;;;;;7.47;2.45;;;;;;;;;;5081548;28;20181;-74
2022/02/14 01:50:51;;;;;;;5.25;2.03;;;;;;;;;;5078598;28;20567;-74
2022/02/14 01:53:18;;;;;;;14.27;3.38;;;;;;;;;;5091886;28;20206;-74
2022/02/14 01:55:44;;;;;;;10.30;2.88;;;;;;;;;;5089163;28;20185;-74
2022/02/14 01:58:10;;;;;;;7.97;2.55;;;;;;;;;;5082285;28;20221;-74
2022/02/14 02:00:37;;;;;;;10.32;2.95;;;;;;;;;;5075129;28;20179;-74
2022/02/14 02:03:03;;;;;;;8.32;2.42;;;;;;;;;;5081689;28;20229;-74
2022/02/14 02:05:29;;;;;;;14.18;3.55;;;;;;;;;;5083280;28;20197;-74
2022/02/14 02:07:56;;;;;;;11.32;3.00;;;;;;;;;;5077596;28;20179;-74
2022/02/14 02:10:23;;;;;;;7.13;2.58;;;;;;;;;;5075776;28;20225;-74
2022/02/14 02:12:50;;;;;;;3.53;1.60;;;;;;;;;;5093689;28;20162;-74
2022/02/14 02:15:16;;;;;;;4.80;2.00;;;;;;;;;;5083122;28;20226;-74
2022/02/14 02:17:43;;;;;;;13.40;4.03;;;;;;;;;;5084372;28;20233;-72
2022/02/14 02:20:10;;;;;;;19.67;4.65;;;;;;;;;;5075268;28;20179;-72
2022/02/14 02:22:36;;;;;;;10.07;3.53;;;;;;;;;;5086055;28;20210;-72
2022/02/14 02:25:03;;;;;;;7.35;3.08;;;;;;;;;;5089115;28;20197;-72
2022/02/14 02:27:29;;;;;;;6.95;2.95;;;;;;;;;;5080808;28;20179;-72
2022/02/14 02:29:56;;;;;;;14.13;4.47;;;;;;;;;;5075026;28;20167;-71
2022/02/14 02:32:23;;;;;;;16.70;4.50;;;;;;;;;;5080161;28;20178;-74
2022/02/14 02:34:49;;;;;;;8.30;3.30;;;;;;;;;;5080989;28;20228;-74
2022/02/14 02:37:16;;;;;;;13.90;4.53;;;;;;;;;;5081262;28;20236;-74
2022/02/14 02:39:47;;;;;;;9.27;3.60;;;;;;;;;;5081451;28;20213;-74
2022/02/14 02:42:14;;;;;;;18.05;5.32;;;;;;;;;;5078269;28;20213;-74
2022/02/14 02:44:41;;;;;;;15.85;4.85;;;;;;;;;;5088627;28;20162;-74
2022/02/14 02:47:12;;;;;;;20.25;4.30;;;;;;;;;;5082683;28;20197;-74
2022/02/14 02:49:39;;;;;;;16.45;4.55;;;;;;;;;;5080176;28;20175;-74
2022/02/14 02:52:06;;;;;;;41.22;7.40;;;;;;;;;;5085410;28;20181;-74
2022/02/14 02:54:33;;;;;;;10.75;4.07;;;;;;;;;;5074679;28;20213;-74
2022/02/14 02:56:59;;;;;;;6.93;3.47;;;;;;;;;;5089237;28;20203;-74
2022/02/14 02:59:30;;;;;;;18.70;6.05;;;;;;;;;;5078459;28;20555;-74
2022/02/14 03:01:56;;;;;;;20.85;4.60;;;;;;;;;;5089596;28;20212;-74
2022/02/14 03:04:22;;;;;;;11.00;3.45;;;;;;;;;;5090653;28;20186;-72
2022/02/14 03:06:48;;;;;;;8.32;3.47;;;;;;;;;;5082093;28;20205;-71
2022/02/14 03:09:15;;;;;;;9.57;3.72;;;;;;;;;;5077254;28;20170;-72
2022/02/14 03:11:42;;;;;;;8.07;3.08;;;;;;;;;;5083332;28;20185;-72
2022/02/14 03:14:08;;;;;;;10.40;4.15;;;;;;;;;;5072948;28;20175;-72
2022/02/14 03:16:34;;;;;;;14.57;5.00;;;;;;;;;;5074559;28;20179;-72
2022/02/14 03:19:00;;;;;;;14.60;4.57;;;;;;;;;;5074367;28;20190;-74
2022/02/14 03:21:27;;;;;;;7.60;2.97;;;;;;;;;;5079940;28;20179;-75
2022/02/14 03:23:53;;;;;;;19.58;5.13;;;;;;;;;;5077895;28;20177;-74
2022/02/14 03:26:20;;;;;;;11.88;3.80;;;;;;;;;;5078023;28;20218;-74
2022/02/14 03:28:48;;;;;;;8.63;3.40;;;;;;;;;;5075785;28;20179;-74
2022/02/14 03:31:14;;;;;;;7.22;3.42;;;;;;;;;;5074073;28;20179;-74
2022/02/14 03:33:41;;;;;;;22.40;5.40;;;;;;;;;;5074402;28;20622;-71
2022/02/14 03:36:08;;;;;;;7.20;2.72;;;;;;;;;;5074953;28;20186;-72
2022/02/14 03:38:34;;;;;;;6.28;3.10;;;;;;;;;;5083730;28;20645;-72
2022/02/14 03:41:00;;;;;;;10.63;3.45;;;;;;;;;;5076998;28;20574;-72
2022/02/14 03:43:26;;;;;;;2.95;1.67;;;;;;;;;;5078776;28;20205;-72
2022/02/14 03:45:52;;;;;;;16.63;3.05;;;;;;;;;;5078362;28;20550;-72
2022/02/14 03:48:19;;;;;;;6.97;2.15;;;;;;;;;;5072915;28;20190;-72
2022/02/14 03:50:45;;;;;;;6.55;2.50;;;;;;;;;;5075739;28;20175;-72
2022/02/14 03:53:11;;;;;;;13.20;3.65;;;;;;;;;;5073364;28;20680;-72
2022/02/14 03:55:37;;;;;;;7.87;3.13;;;;;;;;;;5077459;28;20186;-71
2022/02/14 03:58:03;;;;;;;8.93;3.10;;;;;;;;;;5076495;28;20500;-72
2022/02/14 04:00:29;;;;;;;13.50;4.45;;;;;;;;;;5073480;28;20776;-72
2022/02/14 04:02:55;;;;;;;9.82;3.42;;;;;;;;;;5074889;28;20202;-72
2022/02/14 04:05:21;;;;;;;8.57;3.08;;;;;;;;;;5074647;28;20294;-71
2022/02/14 04:07:47;;;;;;;16.17;3.70;;;;;;;;;;5073696;28;20174;-71
2022/02/14 04:10:14;;;;;;;15.23;4.00;;;;;;;;;;5076602;28;20171;-71
2022/02/14 04:12:41;;;;;;;8.15;3.35;;;;;;;;;;5075052;28;20182;-72
2022/02/14 04:15:08;;;;;;;5.63;2.80;;;;;;;;;;5084066;28;20288;-72
2022/02/14 04:17:34;;;;;;;6.70;2.97;;;;;;;;;;5084275;28;20217;-72
2022/02/14 04:20:00;;;;;;;16.80;4.65;;;;;;;;;;5079877;28;20167;-74
2022/02/14 04:22:26;;;;;;;6.47;2.75;;;;;;;;;;5082443;28;20175;-74
2022/02/14 04:24:52;;;;;;;10.15;3.13;;;;;;;;;;5085415;28;20203;-74
2022/02/14 04:27:19;;;;;;;11.65;3.40;;;;;;;;;;5086253;28;20258;-74
2022/02/14 04:29:45;;;;;;;9.40;3.67;;;;;;;;;;5090926;28;20166;-74
2022/02/14 04:32:11;;;;;;;8.73;3.47;;;;;;;;;;5078006;28;20650;-74
2022/02/14 04:34:37;;;;;;;43.15;7.93;;;;;;;;;;5077879;28;20261;-74
2022/02/14 04:37:03;;;;;;;11.77;3.65;;;;;;;;;;5081390;28;20251;-74
2022/02/14 04:39:29;;;;;;;19.27;4.97;;;;;;;;;;5078421;28;20198;-74
2022/02/14 04:41:55;;;;;;;17.00;4.30;;;;;;;;;;5081796;28;20183;-74
2022/02/14 04:44:22;;;;;;;10.60;3.42;;;;;;;;;;5077055;28;20175;-74
2022/02/14 04:46:48;;;;;;;11.75;3.83;;;;;;;;;;5080020;28;20281;-74
2022/02/14 04:49:14;;;;;;;8.18;3.53;;;;;;;;;;5090327;28;20192;-74
2022/02/14 04:51:41;;;;;;;27.10;5.63;;;;;;;;;;5091050;28;20176;-74
2022/02/14 04:54:07;;;;;;;5.88;3.25;;;;;;;;;;5087673;28;20189;-74
2022/02/14 04:56:35;;;;;;;15.37;4.00;;;;;;;;;;5081009;28;20541;-74
2022/02/14 04:59:01;;;;;;;5.97;2.85;;;;;;;;;;5085175;28;20919;-74
2022/02/14 05:01:27;;;;;;;9.05;3.88;;;;;;;;;;5088253;28;20217;-74
2022/02/14 05:03:53;;;;;;;16.92;5.45;;;;;;;;;;5091625;28;20617;-72
2022/02/14 05:06:21;;;;;;;8.25;3.38;;;;;;;;;;5075346;28;20216;-72
2022/02/14 05:08:47;;;;;;;12.20;3.92;;;;;;;;;;5076272;28;20182;-72
2022/02/14 05:11:14;;;;;;;10.82;3.67;;;;;;;;;;5076557;28;20171;-72
2022/02/14 05:13:41;;;;;;;10.55;3.15;;;;;;;;;;5078993;28;20171;-72
2022/02/14 05:16:10;;;;;;;10.23;3.85;;;;;;;;;;5075803;28;20173;-72
2022/02/14 05:18:36;;;;;;;8.60;3.72;;;;;;;;;;5082521;28;20178;-71
2022/02/14 05:21:03;;;;;;;6.60;3.20;;;;;;;;;;5089306;28;20186;-72
2022/02/14 05:23:29;;;;;;;8.88;3.60;;;;;;;;;;5088499;28;20576;-71
2022/02/14 05:25:55;;;;;;;28.60;5.40;;;;;;;;;;5096389;28;20186;-72
2022/02/14 05:28:21;;;;;;;26.48;5.45;;;;;;;;;;5094749;28;20167;-71
2022/02/14 05:30:47;;;;;;;6.57;3.03;;;;;;;;;;5076231;28;20178;-72
2022/02/14 05:33:13;;;;;;;374.75;38.30;;;;;;;;;;5076983;28;20190;-72
2022/02/14 05:35:40;;;;;;;11.75;3.78;;;;;;;;;;5085977;28;20205;-74
2022/02/14 05:38:08;;;;;;;8.57;3.72;;;;;;;;;;5092956;28;20633;-74
2022/02/14 05:40:34;;;;;;;13.65;3.30;;;;;;;;;;5091018;28;20169;-74
2022/02/14 05:43:00;;;;;;;7.85;3.08;;;;;;;;;;5085649;28;20550;-74
2022/02/14 05:45:26;;;;;;;9.30;3.75;;;;;;;;;;5075880;28;20203;-75
2022/02/14 05:47:52;;;;;;;10.10;3.65;;;;;;;;;;5079661;28;20567;-74
2022/02/14 05:50:18;;;;;;;21.48;5.82;;;;;;;;;;5080584;28;20649;-74
2022/02/14 05:52:45;;;;;;;6.53;3.60;;;;;;;;;;5079974;28;20259;-74
2022/02/14 05:55:11;;;;;;;9.90;3.63;;;;;;;;;;5084949;28;20198;-78
2022/02/14 05:57:38;;;;;;;446.67;202.40;;;;;;;;;;5082684;28;20182;-73
2022/02/14 06:00:08;;;;;;;61.25;22.33;;;;;;;;;;5080915;28;20179;-73
2022/02/14 06:02:41;;;;;;;43.00;11.10;;;;;;;;;;5084431;28;20185;-80
2022/02/14 06:05:08;;;;;;;175.38;66.18;;;;;;;;;;5077170;28;20970;-71
2022/02/14 06:07:34;;;;;;;432.73;176.27;;;;;;;;;;5075640;28;20206;-71
2022/02/14 06:10:00;;;;;;;199.80;75.68;;;;;;;;;;5087496;28;20167;-72
2022/02/14 06:12:27;;;;;;;172.18;63.80;;;;;;;;;;5075608;28;20173;-73
2022/02/14 06:14:53;;;;;;;103.03;41.83;;;;;;;;;;5080563;28;20614;-70
2022/02/14 06:17:19;;;;;;;13.50;6.07;;;;;;;;;;5086019;28;20174;-71
2022/02/14 06:19:45;;;;;;;45.70;17.67;;;;;;;;;;5077627;28;20182;-73
2022/02/14 06:22:11;;;;;;;373.27;128.73;;;;;;;;;;5084676;28;20179;-74
2022/02/14 06:24:41;;;;;;;178.40;56.25;;;;;;;;;;5077231;28;20630;-74
2022/02/14 06:27:07;;;;;;;234.65;74.57;;;;;;;;;;5081568;28;20182;-73
2022/02/14 06:29:33;;;;;;;60.45;21.80;;;;;;;;;;5097245;28;20191;-73
2022/02/14 06:31:59;;;;;;;374.13;131.25;;;;;;;;;;5089424;28;20630;-73
2022/02/14 06:34:25;;;;;;;157.50;50.50;;;;;;;;;;5075590;28;20194;-73
2022/02/14 06:36:52;;;;;;;43.53;18.95;;;;;;;;;;5080847;28;20190;-73
2022/02/14 06:39:18;;;;;;;19.17;6.38;;;;;;;;;;5074833;28;20183;-73
2022/02/14 06:41:45;;;;;;;5.97;2.63;;;;;;;;;;5077816;28;20513;-73
2022/02/14 06:44:11;;;;;;;5.72;2.67;;;;;;;;;;5091822;28;20170;-73
2022/02/14 06:46:37;;;;;;;11.07;2.83;;;;;;;;;;5074444;28;20772;-74
2022/02/14 06:49:06;;;;;;;17.83;6.65;;;;;;;;;;5076786;28;20221;-73
2022/02/14 06:51:35;;;;;;;13.98;5.60;;;;;;;;;;5079085;28;20333;-74
2022/02/14 06:54:01;;;;;;;27.40;7.25;;;;;;;;;;5087018;28;20193;-73
2022/02/14 06:56:28;;;;;;;19.48;4.07;;;;;;;;;;5074469;28;20213;-73
2022/02/14 06:58:54;;;;;;;13.75;3.63;;;;;;;;;;5074216;28;20495;-74
2022/02/14 07:01:20;;;;;;;15.90;4.95;;;;;;;;;;5075294;28;20182;-73
2022/02/14 07:03:46;;;;;;;57.20;11.23;;;;;;;;;;5082827;28;20175;-73
2022/02/14 07:06:14;;;;;;;8.63;3.28;;;;;;;;;;5073078;28;20214;-71
2022/02/14 07:08:40;;;;;;;8.27;2.97;;;;;;;;;;5074073;28;20204;-72
2022/02/14 07:11:06;;;;;;;6.80;3.00;;;;;;;;;;5075410;28;20258;-72
2022/02/14 07:13:32;;;;;;;6.82;1.88;;;;;;;;;;5075556;28;20175;-72
2022/02/14 07:15:58;;;;;;;13.35;3.35;;;;;;;;;;5075020;28;20175;-72
2022/02/14 07:18:25;;;;;;;8.32;2.75;;;;;;;;;;5075427;28;20227;-71
2022/02/14 07:20:51;;;;;;;6.93;2.38;;;;;;;;;;5074866;28;20178;-71
2022/02/14 07:23:18;;;;;;;5.13;1.90;;;;;;;;;;5080419;28;20585;-71
2022/02/14 07:25:44;;;;;;;10.75;2.25;;;;;;;;;;5076560;28;20713;-74
2022/02/14 07:28:10;;;;;;;14.83;3.60;;;;;;;;;;5086628;28;20178;-73
2022/02/14 07:30:36;;;;;;;12.23;2.97;;;;;;;;;;5074836;28;20740;-73
2022/02/14 07:33:02;;;;;;;5.28;2.55;;;;;;;;;;5077692;28;20500;-73
2022/02/14 07:35:28;;;;;;;29.38;5.95;;;;;;;;;;5074330;28;20183;-75
2022/02/14 07:37:54;;;;;;;24.57;6.07;;;;;;;;;;5082446;28;20269;-75
2022/02/14 07:40:20;;;;;;;44.70;18.07;;;;;;;;;;5083949;28;20447;-75
2022/02/14 07:42:47;;;;;;;55.37;22.10;;;;;;;;;;5084466;28;20420;-76
2022/02/14 07:45:13;;;;;;;19.25;8.25;;;;;;;;;;5073978;28;20966;-75
2022/02/14 07:47:39;;;;;;;11.80;5.50;;;;;;;;;;5080569;28;20186;-75
2022/02/14 07:50:06;;;;;;;10.60;2.90;;;;;;;;;;5080094;28;20421;-75
2022/02/14 07:52:33;;;;;;;19.60;5.43;;;;;;;;;;5081381;28;20406;-75
2022/02/14 07:54:59;;;;;;;5.97;2.27;;;;;;;;;;5080085;28;20513;-75
2022/02/14 07:57:25;;;;;;;13.40;3.63;;;;;;;;;;5082939;28;20433;-75
2022/02/14 07:59:52;;;;;;;4.33;2.10;;;;;;;;;;5082089;28;20926;-75
2022/02/14 08:02:18;;;;;;;10.70;2.93;;;;;;;;;;5074840;28;20510;-75
2022/02/14 08:04:46;;;;;;;5.57;2.33;;;;;;;;;;5090368;28;20416;-75
2022/02/14 08:07:12;;;;;;;6.13;2.93;;;;;;;;;;5077686;28;20449;-73
2022/02/14 08:09:39;;;;;;;7.90;2.77;;;;;;;;;;5078326;28;20404;-73
2022/02/14 08:12:07;;;;;;;8.23;3.03;;;;;;;;;;5074205;28;20880;-73
2022/02/14 08:14:34;;;;;;;8.20;2.30;;;;;;;;;;5073354;28;20413;-73
2022/02/14 08:17:01;;;;;;;13.70;3.10;;;;;;;;;;5073477;28;20413;-73
2022/02/14 08:19:27;;;;;;;30.30;11.57;;;;;;;;;;5084334;28;20421;-73
2022/02/14 08:21:55;;;;;;;17.33;7.53;;;;;;;;;;5075931;28;20423;-71
2022/02/14 08:24:22;;;;;;;19.50;5.43;;;;;;;;;;5078941;28;20409;-71
2022/02/14 08:26:49;;;;;;;20.53;5.40;;;;;;;;;;5078281;28;20220;-70
2022/02/14 08:29:15;;;;;;;10.53;4.30;;;;;;;;;;5073286;28;20409;-70
2022/02/14 08:31:41;;;;;;;13.93;4.23;;;;;;;;;;5073231;28;20409;-70
2022/02/14 08:34:08;;;;;;;11.10;3.30;;;;;;;;;;5073207;28;20460;-71
2022/02/14 08:36:34;;;;;;;31.00;5.50;;;;;;;;;;5078842;28;20907;-71
2022/02/14 08:39:00;;;;;;;41.67;6.10;;;;;;;;;;5071632;28;20429;-70
2022/02/14 08:41:26;;;;;;;13.73;3.43;;;;;;;;;;5074569;28;20483;-71
2022/02/14 08:43:53;;;;;;;10.50;4.60;;;;;;;;;;5079316;28;20920;-70
2022/02/14 08:46:22;;;;;;;11.40;3.57;;;;;;;;;;5076466;28;20457;-70
2022/02/14 08:48:49;;;;;;;35.23;4.90;;;;;;;;;;5077880;28;20421;-70
2022/02/14 08:51:17;;;;;;;13.97;4.13;;;;;;;;;;5072073;28;20409;-71
2022/02/14 08:53:44;;;;;;;9.57;3.30;;;;;;;;;;5083839;28;20451;-70
2022/02/14 08:56:10;;;;;;;14.93;3.90;;;;;;;;;;5081741;28;20425;-71
2022/02/14 08:58:36;;;;;;;22.27;4.40;;;;;;;;;;5083321;28;20428;-71
2022/02/14 09:01:04;;;;;;;15.97;3.33;;;;;;;;;;5081823;28;20470;-70
2022/02/14 09:03:30;;;;;;;10.07;3.10;;;;;;;;;;5075821;28;20422;-71
2022/02/14 09:05:57;;;;;;;8.53;2.60;;;;;;;;;;5073189;28;20853;-73
2022/02/14 09:08:26;;;;;;;16.27;3.43;;;;;;;;;;5087181;28;20783;-73
2022/02/14 09:10:55;;;;;;;12.37;2.70;;;;;;;;;;5080780;28;20409;-73
2022/02/14 09:13:22;;;;;;;16.67;3.73;;;;;;;;;;5086501;28;20411;-73
2022/02/14 09:15:48;;;;;;;13.90;3.40;;;;;;;;;;5083090;28;20419;-73
2022/02/14 09:18:15;;;;;;;9.63;2.93;;;;;;;;;;5086885;28;20416;-73
2022/02/14 09:20:41;;;;;;;7.70;2.80;;;;;;;;;;5076876;28;20466;-72
2022/02/14 09:23:08;;;;;;;10.30;2.93;;;;;;;;;;5076580;28;20900;-73
2022/02/14 09:25:34;;;;;;;17.07;2.90;;;;;;;;;;5095333;28;20547;-73
2022/02/14 09:28:01;;;;;;;13.27;3.07;;;;;;;;;;5096695;28;20404;-73
2022/02/14 09:30:27;;;;;;;6.17;2.03;;;;;;;;;;5096616;28;20403;-73
2022/02/14 09:32:53;;;;;;;8.70;2.57;;;;;;;;;;5085060;28;20416;-74
2022/02/14 09:35:28;;;;;;;8.40;1.90;;;;;;;;;;5076104;28;20820;-73
2022/02/14 09:37:55;;;;;;;10.83;2.40;;;;;;;;;;5076604;28;20409;-70
2022/02/14 09:40:22;;;;;;;6.63;2.80;;;;;;;;;;5076057;28;20413;-70
2022/02/14 09:42:49;;;;;;;7.70;2.40;;;;;;;;;;5076158;28;20413;-71
2022/02/14 09:45:15;;;;;;;8.00;2.40;;;;;;;;;;5075899;28;20943;-70
2022/02/14 09:47:43;;;;;;;6.40;2.20;;;;;;;;;;5075991;28;20420;-70
2022/02/14 09:50:10;;;;;;;10.80;2.50;;;;;;;;;;5078553;28;20493;-70
2022/02/14 09:52:36;;;;;;;12.43;3.00;;;;;;;;;;5075858;28;20488;-70
2022/02/14 09:55:04;;;;;;;7.93;2.60;;;;;;;;;;5082514;28;20903;-70
2022/02/14 09:57:30;;;;;;;17.60;3.53;;;;;;;;;;5081730;28;20414;-70
2022/02/14 09:59:59;;;;;;;5.50;1.67;;;;;;;;;;5075860;28;20437;-70
2022/02/14 10:02:26;;;;;;;18.30;3.57;;;;;;;;;;5075610;28;20448;-70
2022/02/14 10:05:08;;;;;;;15.33;2.47;;;;;;;;;;5087609;28;20720;-70
2022/02/14 10:07:42;;;;;;;12.17;2.60;;;;;;;;;;5075829;28;20447;-70
2022/02/14 10:10:27;;;;;;;10.60;2.90;;;;;;;;;;5086827;28;20385;-70
2022/02/14 10:12:55;;;;;;;12.33;2.67;;;;;;;;;;5095867;28;20390;-71
2022/02/14 10:15:22;;;;;;;11.20;3.10;;;;;;;;;;5095704;28;20415;-70
2022/02/14 10:17:49;;;;;;;11.70;2.90;;;;;;;;;;5095647;28;20793;-70
2022/02/14 10:20:16;;;;;;;7.27;2.23;;;;;;;;;;5095113;28;20411;-71
2022/02/14 10:22:55;;;;;;;8.07;2.53;;;;;;;;;;5095852;28;20412;-73
2022/02/14 10:25:37;;;;;;;11.00;2.67;;;;;;;;;;5095305;28;20445;-73
2022/02/14 10:28:14;;;;;;;8.10;2.67;;;;;;;;;;5083432;28;20424;-74
2022/02/14 10:31:01;;;;;;;9.37;3.07;;;;;;;;;;5075170;28;20731;-73
2022/02/14 10:33:48;;;;;;;25.03;3.63;;;;;;;;;;5075009;28;20435;-73
2022/02/14 10:36:24;;;;;;;7.50;2.60;;;;;;;;;;5075113;28;20915;-71
2022/02/14 10:38:51;;;;;;;15.40;3.57;;;;;;;;;;5082512;28;20386;-73
2022/02/14 10:41:17;;;;;;;9.20;2.33;;;;;;;;;;5088064;28;20420;-73
2022/02/14 10:43:44;;;;;;;7.50;2.60;;;;;;;;;;5075002;28;20388;-73
2022/02/14 10:46:17;;;;;;;11.70;3.27;;;;;;;;;;5074785;28;20420;-73
2022/02/14 10:48:44;;;;;;;16.73;6.03;;;;;;;;;;5074766;28;20413;-73
2022/02/14 10:51:16;;;;;;;12.40;4.83;;;;;;;;;;5074680;28;20455;-73
2022/02/14 10:53:46;;;;;;;18.10;3.00;;;;;;;;;;5074942;28;20452;-73
2022/02/14 10:56:14;;;;;;;9.63;5.63;;;;;;;;;;5079822;28;20450;-74
2022/02/14 10:58:41;;;;;;;18.27;9.23;;;;;;;;;;5074513;28;20388;-73
2022/02/14 11:01:14;;;;;;;8.50;1.60;;;;;;;;;;5074564;28;20736;-74
2022/02/14 11:03:44;;;;;;;11.73;3.00;;;;;;;;;;5084436;28;20453;-73
2022/02/14 11:06:11;;;;;;;12.97;2.87;;;;;;;;;;5075793;28;20456;-73
2022/02/14 11:08:38;;;;;;;32.30;5.60;;;;;;;;;;5074552;28;20463;-73
2022/02/14 11:11:05;;;;;;;13.20;3.00;;;;;;;;;;5080141;28;20836;-73
2022/02/14 11:13:31;;;;;;;10.70;2.87;;;;;;;;;;5081058;28;20392;-73
2022/02/14 11:16:02;;;;;;;10.37;2.73;;;;;;;;;;5074367;28;20512;-73
2022/02/14 11:18:33;;;;;;;39.93;12.10;;;;;;;;;;5074245;28;20405;-73
2022/02/14 11:21:00;;;;;;;18.67;7.33;;;;;;;;;;5073995;28;20410;-74
2022/02/14 11:23:27;;;;;;;14.30;3.57;;;;;;;;;;5075797;28;20386;-73
2022/02/14 11:26:06;;;;;;;28.30;11.90;;;;;;;;;;5094343;28;20464;-73
2022/02/14 11:28:47;;;;;;;11.87;3.60;;;;;;;;;;5094360;28;20404;-74
2022/02/14 11:31:17;;;;;;;16.63;3.90;;;;;;;;;;5094246;28;20760;-73
2022/02/14 11:33:54;;;;;;;13.23;2.70;;;;;;;;;;5093407;28;20808;-73
2022/02/14 11:36:21;;;;;;;11.13;3.20;;;;;;;;;;5094238;28;20502;-73
2022/02/14 11:38:47;;;;;;;19.00;6.47;;;;;;;;;;5094464;28;20790;-70
2022/02/14 11:41:25;;;;;;;10.23;4.67;;;;;;;;;;5094129;28;20474;-70
2022/02/14 11:43:54;;;;;;;14.73;3.03;;;;;;;;;;5094065;28;20890;-70
2022/02/14 11:46:25;;;;;;;14.50;3.57;;;;;;;;;;5093812;28;20458;-70
2022/02/14 11:48:53;;;;;;;12.20;4.97;;;;;;;;;;5094051;28;20390;-70
2022/02/14 11:51:24;;;;;;;5.90;2.40;;;;;;;;;;5092598;28;20448;-70
2022/02/14 11:53:51;;;;;;;26.60;6.57;;;;;;;;;;5083754;28;20445;-72
2022/02/14 11:56:23;;;;;;;7.53;3.40;;;;;;;;;;5073544;28;20461;-73
2022/02/14 11:59:04;;;;;;;14.07;5.40;;;;;;;;;;5073408;28;20433;-73
2022/02/14 12:01:33;;;;;;;70.10;25.90;;;;;;;;;;5073492;28;20830;-73
2022/02/14 12:04:29;;;;;;;71.37;36.80;;;13.40;1.00;;;;;;5085757;28;20409;-73
2022/02/14 12:07:20;;;;;;;10.70;2.90;;;;;;;;;;5073464;28;20953;-73
2022/02/14 12:09:58;;;;;;;36.47;16.83;;;;;;;;;;5080852;28;20413;-73
2022/02/14 12:12:40;;;;;;;21.43;8.40;;;;;;;;;;5073338;28;20383;-73
2022/02/14 12:20:38;;;;;;;25.53;9.20;;;;;;;;;;5073420;28;20479;-73
2022/02/14 12:23:05;;;;;;;14.73;5.40;;;;;;;;;;5073740;28;20459;-70
2022/02/14 12:25:31;;;;;;;38.70;14.67;;;;;;;;;;5092012;28;20442;-70
2022/02/14 12:28:00;;;;;;;77.30;31.63;;;;;;;;;;5092205;28;20391;-70
2022/02/14 12:30:26;;;;;;;42.43;10.93;;;;;;;;;;5081218;28;20404;-70
2022/02/14 12:32:58;;;;;;;12.77;5.33;;;;;;;;;;5073339;28;20759;-70
2022/02/14 12:35:31;;;;;;;11.40;5.83;;;;;;;;;;5072008;28;20455;-70
2022/02/14 12:37:57;;;;;;;42.57;14.83;;;;;;;;;;5073398;28;20486;-73
2022/02/14 12:40:24;;;;;;;11.43;3.70;;;;;;;;;;5073311;28;20437;-73
2022/02/14 12:42:51;;;;;;;43.70;17.50;;;;;;;;;;5073158;28;20431;-73
2022/02/14 12:45:18;;;;;;;18.43;13.00;;;;;;;;;;5076195;28;20457;-73
2022/02/14 12:47:44;;;;;;;18.83;10.63;;;;;;;;;;5077202;28;20882;-73
2022/02/14 12:50:13;;;;;;;27.07;15.87;;;;;;;;;;5084044;28;20390;-73
2022/02/14 12:52:43;;;;;;;21.90;11.23;;;;;;;;;;5082885;28;20415;-72
2022/02/14 12:55:10;;;;;;;40.07;16.50;;;;;;;;;;5076904;28;20411;-70
2022/02/14 12:57:42;;;;;;;83.03;26.23;;;13.30;1.00;;;;;;5076545;28;20404;-70
2022/02/14 13:00:20;;;;;;;87.93;36.03;;;;;;;;;;5076839;28;20388;-70
2022/02/14 13:02:53;;;;;;;28.43;12.87;;;;;;;;;;5077675;28;20425;-70
2022/02/14 13:05:20;;;;;;;37.17;24.23;;;;;;;;;;5083992;28;20457;-70
2022/02/14 13:07:49;;;;;;;58.33;18.77;;;;;;;;;;5076242;28;20420;-71
2022/02/14 13:10:18;;;;;;;53.60;26.77;;;;;;;;;;5083006;28;20942;-70
2022/02/14 13:12:44;;;;;;;11.23;6.60;;;;;;;;;;5081158;28;20475;-70
2022/02/14 13:15:12;;;;;;;24.17;12.13;;;;;;;;;;5076844;28;20415;-69
2022/02/14 13:17:38;;;;;;;18.33;10.77;;;;;;;;;;5076533;28;20384;-70
2022/02/14 13:20:06;;;;;;;112.07;52.70;;;;;;;;;;5087332;28;20399;-70
2022/02/14 13:22:38;;;;;;;40.47;16.40;;;;;;;;;;5077190;28;20396;-71
2022/02/14 13:25:25;;;;;;;21.13;10.00;;;13.80;1.00;;;;;;5087286;28;20386;-73
2022/02/14 13:27:58;;;;;;;25.30;14.63;;;;;;;;;;5079671;28;20927;-74
2022/02/14 13:30:25;;;;;;;85.70;32.33;;;;;;;;;;5078596;28;20434;-74
2022/02/14 13:32:51;;;;;;;24.77;5.37;;;;;;;;;;5076466;28;20428;-73
2022/02/14 13:35:19;;;;;;;46.67;16.63;;;;;;;;;;5088028;28;20780;-75
2022/02/14 13:37:52;;;;;;;19.47;3.90;;;;;;;;;;5077350;28;20416;-76
2022/02/14 13:40:28;;;;;;;24.03;5.50;;;;;;;;;;5084006;28;20416;-75
2022/02/14 13:42:55;;;;;;;10.20;2.70;;;;;;;;;;5076355;28;20412;-76
2022/02/14 13:45:22;;;;;;;10.87;3.10;;;;;;;;;;5076203;28;20457;-76
2022/02/14 13:47:49;;;;;;;16.87;4.07;;;;;;;;;;5076135;28;20421;-76
2022/02/14 13:50:25;;;;;;;13.17;3.63;;;;;;;;;;5076023;28;20408;-77
2022/02/14 13:52:54;;;;;;;17.37;3.37;;;;;;;;;;5082415;28;20747;-77
2022/02/14 13:55:26;;;;;;;17.20;4.70;;;;;;;;;;5086492;28;20447;-77
2022/02/14 13:57:53;;;;;;;6.10;2.53;;;;;;;;;;5084734;28;20409;-76
2022/02/14 14:00:36;;;;;;;27.20;7.90;;;;;;;;;;5074582;28;20756;-75
2022/02/14 14:03:05;;;;;;;20.37;8.00;;;;;;;;;;5080282;28;20421;-76
2022/02/14 14:05:44;;;;;;;22.50;10.60;;;;;;;;;;5077276;28;20493;-76
2022/02/14 14:08:32;;;;;;;40.93;6.03;;;;;;;;;;5077308;28;20420;-77
2022/02/14 14:10:58;;;;;;;9.80;3.93;;;;;;;;;;5075644;28;20383;-73
2022/02/14 14:13:36;;;;;;;16.90;4.00;;;;;;;;;;5075469;28;20406;-73
2022/02/14 14:16:02;;;;;;;18.07;3.63;;;;;;;;;;5075778;28;20775;-74
2022/02/14 14:18:28;;;;;;;13.87;4.33;;;;;;;;;;5082864;28;20942;-74
2022/02/14 14:21:03;;;;;;;21.57;6.93;;;;;;;;;;5095699;28;20386;-74
2022/02/14 14:23:29;;;;;;;22.03;7.90;;;;;;;;;;5090991;28;20422;-74
2022/02/14 14:25:55;;;;;;;233.50;61.30;;;;;;;;;;5075629;28;20921;-74
2022/02/14 14:28:21;;;;;;;222.50;61.60;;;;;;;;;;5088540;28;20922;-72
2022/02/14 14:30:47;;;;;;;198.80;56.80;;;;;;;;;;5078556;28;20425;-73
2022/02/14 14:33:13;;;;;;;206.37;58.30;;;;;;;;;;5075207;28;20564;-73
2022/02/14 14:35:47;;;;;;;3.87;2.07;;;12.70;1.00;;;;;;5074931;28;20413;-73
2022/02/14 14:38:13;;;;;;;3.90;1.90;;;12.60;1.00;;;;;;5083446;28;20421;-74